MUCC

Jardines del Rey Airport

Airport
ICAO code
MUCC
IATA Code
CCC
Summary
ICAO Region
CARSAM
ICAO Territory
Location

Cayo Coco, Ciego de Avila

Serving
Cayo Coco
Elevation
13 ft
Coordinates
22° 27' 42" N , 78° 19' 38" W
KCC
Airport BS
Bird Strike
Metar
Observation
MUCC 080750Z 04012KT 9000 SCT020 25/20 Q1019
Station
Cayo Coco / Jardines Del Ray
Date/Time
2022-12-08 07:50:00
Wind direction
40°
Wind speed
12 kts
Lowest cloud amount
scattered clouds
Temperature
25°C
Dew point
20°C
Humidity
73%
QNH
1019 hPa
Weather condition
n/a

International airport serving the islands of Cayo Coco and Cayo Guillermo, Cuba.

Climatology

Tropical Savanna climate (Köppen climate classification Aw)

Runways

Designator Length Width Surface Rops
8/26 3000 45 ASP Yes/Yes

Airport map

Aerial View

SKYbrary Partners:

Safety knowledge contributed by: